createdAt,value
2023-04-20T00:01:16.585Z,13.02
2023-04-20T00:03:44.258Z,13.63
2023-04-20T00:06:12.436Z,13.43
2023-04-20T00:08:39.959Z,14.85
2023-04-20T00:11:07.977Z,14.18
2023-04-20T00:13:35.376Z,15.13
2023-04-20T00:16:03.275Z,16.52
2023-04-20T00:18:31.175Z,13.82
2023-04-20T00:20:59.171Z,19.45
2023-04-20T00:23:26.694Z,21.27
2023-04-20T00:25:54.673Z,17.08
2023-04-20T00:28:22.270Z,20.25
2023-04-20T00:30:50.130Z,17.10
2023-04-20T00:33:17.678Z,16.17
2023-04-20T00:35:45.487Z,14.65
2023-04-20T00:38:12.984Z,22.45
2023-04-20T00:40:42.836Z,23.40
2023-04-20T00:43:14.978Z,21.67
2023-04-20T00:45:42.979Z,23.90
2023-04-20T00:48:10.873Z,22.15
2023-04-20T00:50:40.581Z,23.42
2023-04-20T00:55:31.840Z,21.98
2023-04-20T00:57:59.674Z,24.00
2023-04-20T01:00:27.554Z,20.45
2023-04-20T01:02:55.308Z,21.55
2023-04-20T01:05:23.440Z,25.00
2023-04-20T01:07:51.272Z,26.60
2023-04-20T01:10:18.959Z,24.73
2023-04-20T01:12:46.544Z,24.17
2023-04-20T01:15:14.163Z,27.60
2023-04-20T01:17:43.891Z,24.55
2023-04-20T01:20:12.804Z,22.80
2023-04-20T01:22:52.001Z,19.10
2023-04-20T01:25:20.657Z,24.10
2023-04-20T01:27:48.696Z,24.45
2023-04-20T01:30:17.356Z,23.27
2023-04-20T01:32:45.549Z,24.70
2023-04-20T01:35:13.783Z,26.98
2023-04-20T01:37:41.804Z,29.70
2023-04-20T01:40:10.832Z,27.63
2023-04-20T01:42:39.274Z,27.95
2023-04-20T01:45:07.981Z,31.05
2023-04-20T01:47:37.214Z,28.95
2023-04-20T01:50:05.344Z,24.27
2023-04-20T01:52:33.216Z,23.55
2023-04-20T01:55:01.147Z,25.20
2023-04-20T01:57:28.708Z,27.38
2023-04-20T01:59:56.573Z,27.02
2023-04-20T02:02:24.267Z,28.80
2023-04-20T02:04:53.392Z,26.90
2023-04-20T02:07:21.668Z,39.15
2023-04-20T02:09:49.277Z,29.65
2023-04-20T02:12:16.905Z,25.05
2023-04-20T02:14:44.524Z,27.15
2023-04-20T02:17:12.090Z,34.47
2023-04-20T02:19:40.219Z,39.80
2023-04-20T02:24:35.542Z,26.83
2023-04-20T02:27:04.294Z,37.67
2023-04-20T02:29:32.593Z,27.90
2023-04-20T02:32:00.573Z,31.33
2023-04-20T02:34:28.161Z,31.80
2023-04-20T02:36:58.392Z,26.23
2023-04-20T02:39:26.346Z,35.08
2023-04-20T02:41:55.957Z,31.75
2023-04-20T02:44:24.248Z,30.63
2023-04-20T02:46:52.556Z,37.13
2023-04-20T02:49:21.956Z,37.55
2023-04-20T02:51:50.036Z,38.45
2023-04-20T02:54:18.080Z,37.40
2023-04-20T02:56:45.983Z,34.50
2023-04-20T02:59:13.594Z,39.97
2023-04-20T03:01:53.888Z,40.88
2023-04-20T03:04:26.370Z,48.20
2023-04-20T03:07:07.401Z,39.95
2023-04-20T03:09:37.640Z,41.20
2023-04-20T03:12:28.152Z,34.13
2023-04-20T03:15:10.515Z,50.10
2023-04-20T03:17:56.973Z,52.90
2023-04-20T03:20:25.404Z,41.35
2023-04-20T03:22:53.378Z,46.42
2023-04-20T03:25:24.764Z,48.05
2023-04-20T03:27:56.290Z,47.35
2023-04-20T03:32:59.559Z,46.45
2023-04-20T03:35:27.770Z,47.85
2023-04-20T03:37:55.964Z,57.72
2023-04-20T03:40:23.621Z,48.38
2023-04-20T03:42:51.672Z,55.20
2023-04-20T03:45:19.232Z,54.53
2023-04-20T03:47:46.920Z,53.63
2023-04-20T03:50:14.886Z,52.80
2023-04-20T03:52:42.440Z,45.85
2023-04-20T03:55:11.762Z,51.42
2023-04-20T03:57:45.887Z,60.00
2023-04-20T04:02:47.910Z,47.92
2023-04-20T04:05:23.117Z,46.13
2023-04-20T04:07:51.040Z,50.47
2023-04-20T04:12:44.059Z,61.85
2023-04-20T04:15:12.329Z,72.60
2023-04-20T04:17:49.353Z,55.45
2023-04-20T04:20:17.630Z,68.35
2023-04-20T04:22:46.073Z,67.38
2023-04-20T04:25:43.338Z,67.82
2023-04-20T04:28:14.879Z,52.75
2023-04-20T04:31:01.748Z,55.83
2023-04-20T04:33:29.813Z,60.03
2023-04-20T04:35:59.541Z,57.05
2023-04-20T04:38:28.112Z,59.20
2023-04-20T04:40:56.651Z,61.22
2023-04-20T04:43:24.435Z,61.30
2023-04-20T04:46:13.420Z,61.33
2023-04-20T04:48:44.479Z,57.22
2023-04-20T04:51:12.325Z,60.88
2023-04-20T04:53:40.170Z,62.15
2023-04-20T04:56:07.999Z,60.47
2023-04-20T04:58:36.047Z,64.47
2023-04-20T05:01:03.796Z,60.78
2023-04-20T05:03:31.788Z,65.47
2023-04-20T05:08:27.198Z,57.33
2023-04-20T05:10:54.722Z,61.55
2023-04-20T05:13:22.932Z,66.35
2023-04-20T05:18:18.204Z,59.65
2023-04-20T05:20:46.160Z,61.75
2023-04-20T05:23:13.700Z,64.65
2023-04-20T05:25:41.785Z,70.20
2023-04-20T05:28:09.325Z,67.47
2023-04-20T05:30:37.342Z,70.22
2023-04-20T05:33:05.065Z,57.80
2023-04-20T05:35:33.340Z,70.88
2023-04-20T05:38:02.677Z,53.13
2023-04-20T05:40:30.407Z,62.53
2023-04-20T05:42:58.290Z,64.05
2023-04-20T05:45:26.206Z,57.42
2023-04-20T05:47:57.404Z,68.03
2023-04-20T05:50:26.781Z,50.13
2023-04-20T05:52:57.078Z,54.42
2023-04-20T05:55:24.671Z,45.67
2023-04-20T05:57:52.601Z,47.95
2023-04-20T06:00:22.028Z,45.50
2023-04-20T06:02:51.204Z,49.03
2023-04-20T06:07:46.689Z,40.90
2023-04-20T06:10:14.389Z,40.15
2023-04-20T06:12:42.115Z,42.60
2023-04-20T06:15:10.982Z,40.55
2023-04-20T06:17:40.701Z,45.13
2023-04-20T06:20:10.575Z,47.63
2023-04-20T06:22:44.613Z,36.53
2023-04-20T06:25:12.644Z,33.95
2023-04-20T06:30:08.530Z,36.72
2023-04-20T06:35:04.402Z,33.03
2023-04-20T06:37:32.355Z,37.67
2023-04-20T06:40:00.207Z,33.80
2023-04-20T06:42:27.882Z,38.72
2023-04-20T06:44:57.830Z,37.92
2023-04-20T06:47:31.513Z,31.48
2023-04-20T06:49:59.807Z,40.47
2023-04-20T06:52:28.053Z,31.10
2023-04-20T06:54:55.619Z,30.02
2023-04-20T06:57:23.779Z,33.85
2023-04-20T06:59:51.721Z,38.38
2023-04-20T07:02:19.558Z,32.60
2023-04-20T07:07:14.993Z,24.95
2023-04-20T07:09:42.591Z,28.55
2023-04-20T07:12:11.794Z,32.25
2023-04-20T07:14:39.304Z,32.20
2023-04-20T07:17:07.145Z,31.75
2023-04-20T07:19:35.291Z,22.08
2023-04-20T07:24:30.844Z,33.20
2023-04-20T07:26:58.415Z,41.47
2023-04-20T07:30:15.014Z,31.60
2023-04-20T07:35:11.086Z,26.17
2023-04-20T07:37:39.320Z,30.27
2023-04-20T07:40:07.758Z,30.00
2023-04-20T07:42:37.547Z,18.13
2023-04-20T07:45:06.533Z,23.00
2023-04-20T07:47:35.219Z,27.83
2023-04-20T07:50:03.854Z,23.55
2023-04-20T07:52:32.721Z,26.95
2023-04-20T07:55:00.349Z,23.80
2023-04-20T07:57:29.034Z,21.67
2023-04-20T07:59:56.681Z,21.63
2023-04-20T08:02:25.028Z,24.85
2023-04-20T08:04:53.290Z,21.33
2023-04-20T08:07:21.715Z,26.02
2023-04-20T08:12:16.602Z,23.08
2023-04-20T08:14:44.663Z,21.80
2023-04-20T08:17:13.435Z,18.48
2023-04-20T08:19:43.701Z,20.77
2023-04-20T08:22:12.914Z,13.02
2023-04-20T08:24:40.635Z,27.52
2023-04-20T08:27:09.264Z,22.10
2023-04-20T08:29:38.106Z,18.58
2023-04-20T08:32:09.439Z,17.45
2023-04-20T08:34:37.452Z,18.88
2023-04-20T08:37:06.319Z,17.75
2023-04-20T08:39:33.930Z,18.73
2023-04-20T08:42:02.222Z,21.90
2023-04-20T08:44:30.124Z,14.50
2023-04-20T08:46:58.335Z,20.75
2023-04-20T08:49:31.862Z,18.70
2023-04-20T08:51:59.654Z,12.00
2023-04-20T08:54:27.751Z,15.75
2023-04-20T08:56:55.554Z,13.73
2023-04-20T08:59:23.090Z,11.02
2023-04-20T09:01:50.999Z,13.32
2023-04-20T09:04:28.061Z,18.10
2023-04-20T09:06:56.787Z,14.65
2023-04-20T09:09:28.084Z,13.45
2023-04-20T09:12:08.967Z,12.70
2023-04-20T09:14:47.438Z,12.20
2023-04-20T09:17:18.093Z,12.65
2023-04-20T09:19:52.335Z,12.63
2023-04-20T09:22:34.573Z,10.20
2023-04-20T09:25:19.264Z,17.58
2023-04-20T09:28:01.527Z,9.90
2023-04-20T09:30:40.906Z,9.55
2023-04-20T09:33:10.903Z,11.77
2023-04-20T09:35:40.565Z,13.43
2023-04-20T09:38:15.620Z,14.13
2023-04-20T09:40:43.682Z,14.10
2023-04-20T09:45:45.557Z,15.30
2023-04-20T09:48:18.925Z,17.10
2023-04-20T09:50:49.630Z,10.75
2023-04-20T09:53:19.960Z,16.40
2023-04-20T09:55:49.331Z,12.32
2023-04-20T09:58:20.429Z,13.10
2023-04-20T10:00:48.169Z,12.00
2023-04-20T10:03:20.221Z,12.38
2023-04-20T10:05:48.485Z,13.93
2023-04-20T10:08:16.887Z,12.93
2023-04-20T10:10:49.434Z,12.63
2023-04-20T10:13:19.630Z,14.60
2023-04-20T10:15:47.669Z,17.33
2023-04-20T10:18:20.563Z,15.07
2023-04-20T10:20:48.882Z,12.55
2023-04-20T10:23:18.733Z,13.45
2023-04-20T10:25:58.541Z,14.48
2023-04-20T10:28:26.774Z,14.15
2023-04-20T10:30:54.751Z,14.00
2023-04-20T10:33:23.254Z,13.20
2023-04-20T10:35:51.846Z,11.05
2023-04-20T10:38:32.512Z,15.27
2023-04-20T10:41:07.872Z,12.32
2023-04-20T10:43:35.941Z,14.70
2023-04-20T10:48:53.371Z,14.63
2023-04-20T10:51:21.465Z,11.68
2023-04-20T10:54:06.267Z,13.35
2023-04-20T10:56:42.113Z,15.43
2023-04-20T10:59:12.395Z,8.23
2023-04-20T11:01:41.191Z,19.08
2023-04-20T11:04:10.736Z,15.18
2023-04-20T11:06:44.342Z,9.85
2023-04-20T11:09:28.414Z,8.25
2023-04-20T11:12:12.219Z,9.75
2023-04-20T11:14:54.784Z,10.45
2023-04-20T11:17:51.780Z,13.55
2023-04-20T11:20:19.368Z,13.13
2023-04-20T11:22:58.894Z,14.68
2023-04-20T11:25:28.138Z,12.23
2023-04-20T11:28:07.487Z,7.60
2023-04-20T11:30:41.960Z,8.80
2023-04-20T11:33:10.513Z,9.30
2023-04-20T11:35:40.138Z,7.57
2023-04-20T11:38:08.485Z,7.05
2023-04-20T11:40:36.746Z,12.38
2023-04-20T11:43:04.849Z,7.82
2023-04-20T11:45:36.264Z,10.05
2023-04-20T11:48:05.789Z,8.02
2023-04-20T11:50:33.653Z,11.55
2023-04-20T11:53:01.290Z,8.77
2023-04-20T11:55:28.789Z,8.57
2023-04-20T11:57:56.333Z,12.70
2023-04-20T12:00:24.020Z,9.88
2023-04-20T12:02:51.845Z,13.30
2023-04-20T12:05:19.554Z,14.20
2023-04-20T12:07:47.413Z,12.70
2023-04-20T12:10:14.919Z,10.13
2023-04-20T12:12:42.814Z,10.80
2023-04-20T12:15:10.791Z,14.80
2023-04-20T12:17:38.424Z,16.30
2023-04-20T12:20:08.705Z,11.35
2023-04-20T12:22:36.389Z,6.82
2023-04-20T12:25:04.660Z,10.45
2023-04-20T12:27:32.897Z,7.60
2023-04-20T12:30:00.394Z,9.05
2023-04-20T12:32:28.252Z,9.88
2023-04-20T12:37:23.457Z,6.88
2023-04-20T12:39:51.362Z,6.82
2023-04-20T12:44:46.409Z,5.63
2023-04-20T12:47:14.207Z,6.18
2023-04-20T12:49:41.753Z,7.28
2023-04-20T12:52:09.405Z,7.50
2023-04-20T12:54:37.232Z,6.35
2023-04-20T12:59:32.344Z,7.40
2023-04-20T13:02:00.331Z,10.27
2023-04-20T13:04:28.309Z,5.22
2023-04-20T13:06:56.016Z,6.78
2023-04-20T13:09:27.081Z,8.23
2023-04-20T13:11:54.724Z,7.15
2023-04-20T13:14:22.265Z,5.85
2023-04-20T13:16:53.690Z,6.28
2023-04-20T13:19:23.010Z,6.25
2023-04-20T13:24:18.114Z,4.35
2023-04-20T13:29:13.961Z,5.18
2023-04-20T13:31:41.558Z,5.03
2023-04-20T13:34:09.128Z,7.10
2023-04-20T13:36:37.271Z,7.30
2023-04-20T13:39:04.856Z,5.82
2023-04-20T13:41:32.389Z,3.33
2023-04-20T13:44:00.763Z,7.53
2023-04-20T13:46:29.459Z,6.90
2023-04-20T13:48:57.417Z,8.52
2023-04-20T13:53:52.639Z,2.90
2023-04-20T13:56:22.751Z,2.65
2023-04-20T13:58:50.443Z,4.18
2023-04-20T14:01:18.038Z,7.53
2023-04-20T14:03:45.980Z,2.85
2023-04-20T14:06:13.602Z,7.95
2023-04-20T14:08:41.168Z,7.22
2023-04-20T14:11:08.701Z,4.88
2023-04-20T14:13:37.639Z,6.65
2023-04-20T14:16:10.134Z,5.78
2023-04-20T14:18:38.245Z,4.70
2023-04-20T14:21:06.289Z,7.57
2023-04-20T14:23:33.984Z,7.28
2023-04-20T14:26:04.031Z,3.97
2023-04-20T14:28:33.386Z,3.38
2023-04-20T14:31:02.459Z,4.68
2023-04-20T14:33:30.429Z,5.53
2023-04-20T14:38:25.353Z,7.72
2023-04-20T14:40:52.957Z,4.85
2023-04-20T14:43:20.581Z,4.20
2023-04-20T14:48:15.656Z,4.00
2023-04-20T14:50:43.538Z,6.70
2023-04-20T14:53:11.253Z,8.65
2023-04-20T14:55:39.407Z,3.95
2023-04-20T14:58:06.947Z,2.63
2023-04-20T15:00:34.515Z,3.60
2023-04-20T15:03:02.265Z,2.60
2023-04-20T15:07:58.016Z,3.70
2023-04-20T15:12:53.177Z,3.75
2023-04-20T15:15:20.802Z,7.82
2023-04-20T15:17:48.876Z,5.57
2023-04-20T15:20:16.736Z,4.75
2023-04-20T15:22:44.725Z,5.10
2023-04-20T15:25:12.657Z,5.07
2023-04-20T15:27:40.514Z,4.57
2023-04-20T15:30:09.837Z,6.80
2023-04-20T15:32:37.448Z,4.22
2023-04-20T15:35:05.452Z,5.18
2023-04-20T15:37:32.941Z,3.85
2023-04-20T15:40:00.870Z,3.92
2023-04-20T15:42:28.592Z,7.60
2023-04-20T15:44:56.515Z,2.53
2023-04-20T15:47:24.209Z,3.45
2023-04-20T15:52:19.345Z,4.97
2023-04-20T15:54:47.594Z,15.68
2023-04-20T15:57:15.507Z,3.80
2023-04-20T16:02:11.504Z,3.97
2023-04-20T16:04:39.244Z,4.57
2023-04-20T16:07:07.093Z,6.40
2023-04-20T16:12:05.187Z,5.50
2023-04-20T16:14:33.182Z,8.32
2023-04-20T16:17:02.668Z,5.35
2023-04-20T16:19:31.296Z,5.20
2023-04-20T16:21:58.898Z,7.55
2023-04-20T16:24:26.673Z,4.22
2023-04-20T16:29:23.512Z,5.93
2023-04-20T16:34:19.251Z,6.63
2023-04-20T16:36:47.922Z,4.80
2023-04-20T16:39:15.976Z,5.07
2023-04-20T16:41:43.625Z,6.68
2023-04-20T16:44:13.732Z,3.97
2023-04-20T16:46:42.099Z,5.57
2023-04-20T16:49:10.083Z,6.00
2023-04-20T16:51:38.085Z,5.82
2023-04-20T16:54:06.298Z,6.57
2023-04-20T16:56:34.407Z,7.57
2023-04-20T16:59:02.198Z,5.32
2023-04-20T17:03:57.743Z,7.50
2023-04-20T17:06:26.210Z,6.93
2023-04-20T17:08:56.027Z,9.13
2023-04-20T17:11:23.880Z,7.00
2023-04-20T17:18:48.553Z,5.72
2023-04-20T17:21:16.324Z,5.70
2023-04-20T17:26:11.356Z,5.93
2023-04-20T17:28:38.933Z,6.32
2023-04-20T17:31:06.507Z,8.77
2023-04-20T17:33:34.368Z,8.18
2023-04-20T17:36:01.894Z,10.07
2023-04-20T17:38:29.386Z,7.55
2023-04-20T17:40:56.847Z,7.38
2023-04-20T17:43:24.281Z,9.40
2023-04-20T17:45:51.933Z,7.60
2023-04-20T17:48:19.407Z,7.13
2023-04-20T17:50:51.123Z,7.95
2023-04-20T17:53:19.206Z,8.95
2023-04-20T17:55:46.698Z,8.15
2023-04-20T17:58:14.268Z,6.70
2023-04-20T18:00:42.966Z,5.72
2023-04-20T18:03:11.521Z,6.63
2023-04-20T18:05:39.015Z,6.85
2023-04-20T18:08:06.738Z,11.02
2023-04-20T18:10:34.826Z,11.38
2023-04-20T18:13:02.365Z,8.32
2023-04-20T18:15:30.066Z,6.55
2023-04-20T18:17:57.670Z,10.30
2023-04-20T18:20:25.526Z,8.68
2023-04-20T18:22:53.051Z,8.98
2023-04-20T18:25:20.558Z,7.93
2023-04-20T18:27:48.109Z,9.88
2023-04-20T18:30:16.289Z,9.70
2023-04-20T18:32:43.922Z,6.45
2023-04-20T18:35:11.682Z,7.05
2023-04-20T18:37:39.342Z,5.90
2023-04-20T18:40:07.669Z,9.05
2023-04-20T18:42:35.214Z,10.18
2023-04-20T18:45:03.543Z,9.73
2023-04-20T18:47:32.230Z,9.32
2023-04-20T18:49:59.609Z,10.43
2023-04-20T18:52:27.279Z,9.43
2023-04-20T18:54:55.459Z,7.25
2023-04-20T18:57:26.311Z,8.02
2023-04-20T18:59:53.827Z,9.77
2023-04-20T19:02:22.331Z,7.72
2023-04-20T19:04:51.134Z,8.85
2023-04-20T19:07:18.875Z,7.03
2023-04-20T19:09:46.472Z,8.27
2023-04-20T19:12:13.994Z,11.35
2023-04-20T19:14:41.731Z,8.40
2023-04-20T19:17:09.265Z,7.93
2023-04-20T19:19:36.988Z,7.60
2023-04-20T19:22:04.643Z,10.38
2023-04-20T19:24:32.812Z,9.10
2023-04-20T19:27:01.043Z,6.93
2023-04-20T19:29:28.697Z,7.80
2023-04-20T19:31:56.337Z,9.65
2023-04-20T19:34:23.870Z,12.63
2023-04-20T19:36:52.441Z,13.73
2023-04-20T19:39:20.321Z,6.88
2023-04-20T19:41:47.886Z,12.57
2023-04-20T19:44:15.866Z,10.10
2023-04-20T19:46:43.655Z,16.33
2023-04-20T19:49:11.279Z,11.05
2023-04-20T19:51:38.886Z,10.38
2023-04-20T19:54:06.814Z,8.57
2023-04-20T19:56:35.151Z,7.40
2023-04-20T20:01:30.123Z,13.65
2023-04-20T20:03:57.985Z,11.00
2023-04-20T20:06:26.994Z,13.02
2023-04-20T20:08:54.541Z,10.25
2023-04-20T20:11:22.650Z,9.13
2023-04-20T20:13:50.460Z,11.00
2023-04-20T20:16:18.398Z,10.15
2023-04-20T20:21:15.168Z,10.40
2023-04-20T20:23:42.683Z,13.68
2023-04-20T20:26:10.196Z,10.55
2023-04-20T20:28:37.706Z,12.23
2023-04-20T20:31:05.489Z,13.95
2023-04-20T20:33:33.168Z,12.95
2023-04-20T20:36:02.731Z,10.43
2023-04-20T20:38:31.172Z,12.82
2023-04-20T20:40:58.777Z,17.52
2023-04-20T20:43:26.455Z,14.30
2023-04-20T20:45:54.813Z,12.52
2023-04-20T20:50:49.954Z,16.20
2023-04-20T20:53:20.482Z,19.55
2023-04-20T20:55:47.991Z,20.27
2023-04-20T20:58:15.611Z,25.08
2023-04-20T21:00:44.169Z,26.15
2023-04-20T21:03:13.944Z,15.15
2023-04-20T21:05:41.580Z,15.55
2023-04-20T21:08:10.071Z,24.98
2023-04-20T21:10:37.684Z,18.95
2023-04-20T21:13:06.014Z,18.52
2023-04-20T21:15:33.486Z,20.33
2023-04-20T21:18:01.209Z,23.23
2023-04-20T21:20:29.177Z,21.80
2023-04-20T21:22:56.687Z,31.55
2023-04-20T21:25:24.409Z,31.42
2023-04-20T21:27:51.970Z,37.03
2023-04-20T21:30:19.902Z,29.88
2023-04-20T21:32:47.416Z,31.52
2023-04-20T21:35:15.427Z,30.35
2023-04-20T21:37:43.801Z,35.53
2023-04-20T21:40:11.941Z,31.92
2023-04-20T21:45:07.350Z,36.53
2023-04-20T21:47:34.929Z,37.42
2023-04-20T21:50:02.744Z,36.00
2023-04-20T21:52:31.590Z,36.97
2023-04-20T21:54:59.263Z,39.90
2023-04-20T21:57:27.001Z,37.80
2023-04-20T21:59:54.599Z,31.73
2023-04-20T22:02:22.542Z,46.92
2023-04-20T22:04:51.115Z,34.67
2023-04-20T22:07:19.353Z,39.45
2023-04-20T22:09:46.909Z,39.45
2023-04-20T22:12:14.431Z,35.13
2023-04-20T22:14:42.205Z,36.83
2023-04-20T22:17:12.362Z,32.33
2023-04-20T22:19:40.687Z,26.38
2023-04-20T22:22:08.198Z,32.33
2023-04-20T22:24:35.903Z,38.08
2023-04-20T22:27:03.546Z,42.72
2023-04-20T22:29:31.511Z,39.97
2023-04-20T22:31:59.364Z,38.08
2023-04-20T22:34:27.108Z,39.33
2023-04-20T22:37:20.498Z,47.03
2023-04-20T22:39:52.657Z,37.53
2023-04-20T22:42:23.557Z,42.97
2023-04-20T22:48:04.162Z,44.13
2023-04-20T22:53:42.404Z,47.50
2023-04-20T22:56:10.294Z,43.70
2023-04-20T22:58:37.924Z,56.45
2023-04-20T23:01:05.764Z,32.15
2023-04-20T23:03:33.506Z,53.42
2023-04-20T23:06:02.990Z,55.13
2023-04-20T23:08:30.831Z,54.97
2023-04-20T23:10:59.408Z,53.78
2023-04-20T23:13:27.343Z,52.70
2023-04-20T23:18:25.247Z,41.65
2023-04-20T23:20:53.963Z,47.38
2023-04-20T23:23:22.680Z,43.28
2023-04-20T23:25:50.528Z,60.92
2023-04-20T23:28:19.628Z,49.38
2023-04-20T23:30:47.106Z,50.20
2023-04-20T23:33:14.804Z,43.15
2023-04-20T23:35:42.512Z,44.95
2023-04-20T23:38:12.727Z,38.03
2023-04-20T23:40:40.426Z,41.67
2023-04-20T23:43:09.929Z,36.28
2023-04-20T23:45:37.620Z,30.38
2023-04-20T23:48:05.860Z,30.60
2023-04-20T23:50:33.996Z,28.65
2023-04-20T23:53:02.276Z,24.35
2023-04-20T23:55:29.955Z,23.27
2023-04-20T23:57:58.567Z,25.27
